Time;durP1;ratioP1;P1;durP2;ratioP2;P2;SDS_P1;SDS_P2;PMS_P1;PMS_P2;Temp;Humidity;BMP_temperature;BMP_pressure;BME280_temperature;BME280_humidity;BME280_pressure;Samples;Min_cycle;Max_cycle;Signal;HPM_P1;HPM_P2
2022/01/13 00:01:57;;;;;;;65.68;21.88;;;2.00;99.90;;;;;;5097295;28;20016;-67
2022/01/13 00:04:25;;;;;;;66.47;22.30;;;2.00;99.90;;;;;;5096613;28;20041;-67
2022/01/13 00:06:52;;;;;;;73.22;23.35;;;2.00;99.90;;;;;;5096635;28;20031;-67
2022/01/13 00:09:21;;;;;;;65.28;22.63;;;2.00;99.90;;;;;;5078747;28;20059;-67
2022/01/13 00:11:50;;;;;;;76.18;25.80;;;2.00;99.90;;;;;;5096541;28;20020;-67
2022/01/13 00:19:46;;;;;;;62.17;22.60;;;2.00;99.90;;;;;;5096677;28;20016;-67
2022/01/13 00:22:44;;;;;;;67.10;24.15;;;2.00;99.90;;;;;;5096591;28;20025;-67
2022/01/13 00:25:15;;;;;;;65.85;23.38;;;2.00;99.90;;;;;;5097212;28;20034;-67
2022/01/13 00:27:49;;;;;;;65.55;22.35;;;2.00;99.90;;;;;;5097972;28;20076;-67
2022/01/13 00:30:18;;;;;;;61.58;22.23;;;2.00;99.90;;;;;;5097191;28;20081;-67
2022/01/13 00:32:46;;;;;;;62.90;24.23;;;2.00;99.90;;;;;;5097265;28;20335;-67
2022/01/13 00:35:13;;;;;;;76.57;24.42;;;2.00;99.90;;;;;;5097402;28;20035;-67
2022/01/13 00:37:41;;;;;;;66.22;24.30;;;2.00;99.90;;;;;;5079400;28;20025;-67
2022/01/13 00:40:10;;;;;;;66.85;24.88;;;2.00;99.90;;;;;;5078862;28;20020;-67
2022/01/13 00:42:38;;;;;;;75.90;25.42;;;2.00;99.90;;;;;;5096904;28;20016;-67
2022/01/13 00:45:09;;;;;;;66.78;24.02;;;2.00;99.90;;;;;;5078523;28;20032;-67
2022/01/13 00:47:37;;;;;;;68.68;24.40;;;2.00;99.90;;;;;;5096261;28;20050;-67
2022/01/13 00:50:05;;;;;;;63.10;23.27;;;2.10;99.90;;;;;;5096608;28;20024;-67
2022/01/13 00:52:33;;;;;;;73.60;25.38;;;2.10;99.90;;;;;;5096062;28;20032;-67
2022/01/13 00:55:05;;;;;;;61.17;24.35;;;2.00;99.90;;;;;;5096884;28;20020;-67
2022/01/13 00:57:33;;;;;;;65.35;23.15;;;2.10;99.90;;;;;;5079849;28;20028;-67
2022/01/13 01:00:01;;;;;;;66.65;25.38;;;2.00;99.90;;;;;;5096526;28;20025;-67
2022/01/13 01:02:28;;;;;;;67.38;23.73;;;2.00;99.90;;;;;;5096403;28;20016;-67
2022/01/13 01:04:55;;;;;;;62.05;22.70;;;2.10;99.90;;;;;;5100225;28;20024;-67
2022/01/13 01:07:23;;;;;;;52.85;20.63;;;2.10;99.90;;;;;;5101047;28;20347;-67
2022/01/13 01:09:51;;;;;;;51.30;20.02;;;2.10;99.90;;;;;;5100801;28;20024;-67
2022/01/13 01:12:20;;;;;;;60.65;23.67;;;2.10;99.90;;;;;;5100735;28;20026;-67
2022/01/13 01:14:53;;;;;;;63.70;24.33;;;2.10;99.90;;;;;;5101382;28;20024;-67
2022/01/13 01:17:21;;;;;;;71.57;24.55;;;2.10;99.90;;;;;;5100985;28;20339;-67
2022/01/13 01:19:51;;;;;;;62.45;24.55;;;2.10;99.90;;;;;;5100620;28;20023;-67
2022/01/13 01:22:38;;;;;;;72.82;24.08;;;2.10;99.90;;;;;;5100189;28;20371;-67
2022/01/13 01:25:32;;;;;;;56.72;24.15;;;2.10;99.90;;;;;;5084812;28;20051;-67
2022/01/13 01:27:58;;;;;;;62.22;21.98;;;2.10;99.90;;;;;;5099299;28;20084;-67
2022/01/13 01:30:42;;;;;;;58.47;23.15;;;2.10;99.90;;;;;;5100299;28;20024;-67
2022/01/13 01:33:15;;;;;;;75.32;25.55;;;2.10;99.90;;;;;;5099531;28;20054;-67
2022/01/13 01:35:43;;;;;;;64.15;23.00;;;2.10;99.90;;;;;;5082256;28;20035;-67
2022/01/13 01:38:11;;;;;;;73.82;24.13;;;2.10;99.90;;;;;;5099343;28;20029;-67
2022/01/13 01:40:39;;;;;;;64.80;22.08;;;2.10;99.90;;;;;;5081512;28;20050;-67
2022/01/13 01:43:06;;;;;;;69.10;21.85;;;2.10;99.90;;;;;;5081302;28;20434;-67
2022/01/13 01:45:42;;;;;;;60.75;23.88;;;2.10;99.90;;;;;;5082147;28;20047;-67
2022/01/13 01:48:11;;;;;;;67.65;22.77;;;2.10;99.90;;;;;;5100229;28;20035;-67
2022/01/13 01:50:39;;;;;;;65.72;20.55;;;2.10;99.90;;;;;;5100536;28;20028;-67
2022/01/13 01:53:06;;;;;;;74.95;25.10;;;2.10;99.90;;;;;;5099901;28;20449;-67
2022/01/13 01:55:34;;;;;;;69.63;21.67;;;2.00;99.90;;;;;;5065371;28;20054;-67
2022/01/13 01:58:01;;;;;;;68.28;23.73;;;2.00;99.90;;;;;;5099970;28;20027;-67
2022/01/13 02:00:28;;;;;;;83.18;27.65;;;2.00;99.90;;;;;;5100601;28;20408;-67
2022/01/13 02:02:55;;;;;;;77.57;24.98;;;2.00;99.90;;;;;;5081926;28;20034;-67
2022/01/13 02:05:23;;;;;;;78.07;26.27;;;2.00;99.90;;;;;;5098817;28;20058;-67
2022/01/13 02:07:51;;;;;;;75.55;23.70;;;2.00;99.90;;;;;;5098642;28;20039;-67
2022/01/13 02:10:20;;;;;;;94.07;27.70;;;2.00;99.90;;;;;;5099145;28;20042;-67
2022/01/13 02:12:51;;;;;;;61.67;22.73;;;2.00;99.90;;;;;;5080938;28;20032;-67
2022/01/13 02:17:51;;;;;;;84.25;25.88;;;2.00;99.90;;;;;;5077299;28;20123;-67
2022/01/13 02:20:20;;;;;;;80.30;26.85;;;2.00;99.90;;;;;;5077449;28;20021;-67
2022/01/13 02:22:47;;;;;;;78.97;27.00;;;2.00;99.90;;;;;;5078136;28;20416;-67
2022/01/13 02:25:16;;;;;;;80.88;25.67;;;2.00;99.90;;;;;;5077178;28;20439;-67
2022/01/13 02:27:43;;;;;;;92.28;27.27;;;2.00;99.90;;;;;;5079423;28;20044;-67
2022/01/13 02:30:11;;;;;;;75.40;25.85;;;2.00;99.90;;;;;;5078148;28;20024;-67
2022/01/13 02:32:38;;;;;;;80.38;28.55;;;2.00;99.90;;;;;;5079055;28;20328;-67
2022/01/13 02:35:07;;;;;;;84.35;24.42;;;1.90;99.90;;;;;;5078935;28;20029;-67
2022/01/13 02:37:34;;;;;;;82.03;25.13;;;2.00;99.90;;;;;;5077930;28;20032;-67
2022/01/13 02:40:02;;;;;;;80.90;26.08;;;2.00;99.90;;;;;;5079551;28;20029;-67
2022/01/13 02:42:29;;;;;;;82.95;25.75;;;1.90;99.90;;;;;;5077738;28;20328;-67
2022/01/13 02:45:14;;;;;;;88.43;27.33;;;1.90;99.90;;;;;;5079024;28;20029;-67
2022/01/13 02:50:14;;;;;;;75.63;23.63;;;1.90;99.90;;;;;;5078024;28;20048;-67
2022/01/13 02:52:42;;;;;;;83.00;27.23;;;2.00;99.90;;;;;;5076532;28;20029;-67
2022/01/13 02:55:10;;;;;;;88.03;28.42;;;1.90;99.90;;;;;;5076399;28;20431;-67
2022/01/13 02:57:39;;;;;;;80.97;25.65;;;2.00;99.90;;;;;;5077659;28;20029;-67
2022/01/13 03:00:08;;;;;;;78.97;23.10;;;2.00;99.90;;;;;;5077460;28;20052;-67
2022/01/13 03:02:36;;;;;;;97.82;27.55;;;1.90;99.90;;;;;;5077482;28;20051;-67
2022/01/13 03:05:11;;;;;;;93.22;27.15;;;1.90;99.90;;;;;;5077547;28;20052;-67
2022/01/13 03:07:39;;;;;;;106.03;29.60;;;1.90;99.90;;;;;;5077262;28;20067;-67
2022/01/13 03:10:08;;;;;;;87.85;24.65;;;1.90;99.90;;;;;;5078224;28;20020;-67
2022/01/13 03:12:38;;;;;;;78.78;27.10;;;1.90;99.90;;;;;;5077063;28;20024;-67
2022/01/13 03:15:08;;;;;;;85.47;24.33;;;1.90;99.90;;;;;;5078146;28;20028;-67
2022/01/13 03:17:35;;;;;;;78.18;23.42;;;1.90;99.90;;;;;;5089228;28;20051;-67
2022/01/13 03:20:03;;;;;;;83.97;26.60;;;1.90;99.90;;;;;;5098908;28;20396;-67
2022/01/13 03:22:31;;;;;;;87.53;27.10;;;1.90;99.90;;;;;;5080267;28;20394;-67
2022/01/13 03:24:59;;;;;;;82.85;25.83;;;1.90;99.90;;;;;;5098358;28;20050;-67
2022/01/13 03:27:34;;;;;;;84.60;24.77;;;1.90;99.90;;;;;;5079535;28;20020;-67
2022/01/13 03:30:08;;;;;;;98.28;28.23;;;1.90;99.90;;;;;;5097551;28;20031;-67
2022/01/13 03:32:37;;;;;;;81.28;23.38;;;1.90;99.90;;;;;;5097729;28;20028;-67
2022/01/13 03:35:07;;;;;;;103.60;28.90;;;1.90;99.90;;;;;;5097233;28;20074;-67
2022/01/13 03:37:35;;;;;;;88.82;27.70;;;1.90;99.90;;;;;;5079497;28;20431;-67
2022/01/13 03:40:04;;;;;;;90.65;27.58;;;1.90;99.90;;;;;;5096992;28;20028;-67
2022/01/13 03:42:32;;;;;;;96.55;27.02;;;1.90;99.90;;;;;;5097051;28;20016;-67
2022/01/13 03:45:00;;;;;;;98.03;28.05;;;1.80;99.90;;;;;;5097445;28;20021;-67
2022/01/13 03:47:27;;;;;;;81.38;25.08;;;1.80;99.90;;;;;;5096947;28;20058;-67
2022/01/13 03:49:54;;;;;;;94.03;27.05;;;1.90;99.90;;;;;;5079105;28;20028;-67
2022/01/13 03:52:25;;;;;;;82.93;23.98;;;1.90;99.90;;;;;;5079534;28;20024;-67
2022/01/13 03:55:24;;;;;;;87.15;26.92;;;1.80;99.90;;;;;;5097832;28;20420;-67
2022/01/13 03:58:32;;;;;;;77.78;22.58;;;1.90;99.90;;;;;;5070360;28;20040;-67
2022/01/13 04:01:37;;;;;;;85.10;24.63;;;1.80;99.90;;;;;;5097889;28;20099;-67
2022/01/13 04:04:05;;;;;;;102.22;28.05;;;1.80;99.90;;;;;;5097559;28;20035;-67
2022/01/13 04:06:35;;;;;;;91.60;24.83;;;1.80;99.90;;;;;;5097581;28;20100;-67
2022/01/13 04:09:08;;;;;;;78.68;22.20;;;1.90;99.90;;;;;;5097974;28;20102;-67
2022/01/13 04:11:35;;;;;;;91.10;27.77;;;1.90;99.90;;;;;;5078726;28;20031;-67
2022/01/13 04:14:05;;;;;;;111.35;26.67;;;1.90;99.90;;;;;;5078992;28;20026;-67
2022/01/13 04:16:37;;;;;;;98.85;27.55;;;1.80;99.90;;;;;;5096578;28;20024;-67
2022/01/13 04:19:07;;;;;;;90.30;28.92;;;1.90;99.90;;;;;;5096773;28;20519;-67
2022/01/13 04:21:37;;;;;;;101.53;26.83;;;1.90;99.90;;;;;;5097064;28;20020;-67
2022/01/13 04:24:06;;;;;;;85.32;24.73;;;1.90;99.90;;;;;;5078520;28;20052;-67
2022/01/13 04:26:34;;;;;;;98.03;28.13;;;1.90;99.90;;;;;;5096765;28;20047;-67
2022/01/13 04:31:38;;;;;;;94.82;26.38;;;1.80;99.90;;;;;;5096454;28;20017;-67
2022/01/13 04:34:06;;;;;;;109.95;29.20;;;1.90;99.90;;;;;;5096890;28;20032;-67
2022/01/13 04:36:34;;;;;;;115.15;31.52;;;1.90;99.90;;;;;;5097741;28;20417;-67
2022/01/13 04:39:01;;;;;;;123.43;31.83;;;1.80;99.90;;;;;;5100651;28;20503;-67
2022/01/13 04:41:34;;;;;;;131.65;30.85;;;1.80;99.90;;;;;;5066739;28;20032;-67
2022/01/13 04:44:07;;;;;;;100.78;28.15;;;1.80;99.90;;;;;;5101305;28;20016;-67
2022/01/13 04:46:35;;;;;;;109.28;30.30;;;1.80;99.90;;;;;;5101742;28;20103;-67
2022/01/13 04:49:03;;;;;;;110.63;28.92;;;1.90;99.90;;;;;;5101383;28;20077;-67
2022/01/13 04:51:31;;;;;;;90.68;26.23;;;1.80;99.90;;;;;;5101689;28;20118;-67
2022/01/13 04:53:58;;;;;;;97.20;29.50;;;1.90;99.90;;;;;;5100386;28;20335;-67
2022/01/13 04:56:29;;;;;;;92.95;25.33;;;1.90;99.90;;;;;;5082295;28;20020;-67
2022/01/13 04:58:57;;;;;;;113.85;27.63;;;1.80;99.90;;;;;;5100403;28;20332;-67
2022/01/13 05:01:25;;;;;;;104.97;28.02;;;1.90;99.90;;;;;;5100318;28;20441;-67
2022/01/13 05:03:52;;;;;;;105.20;26.08;;;1.90;99.90;;;;;;5100142;28;20028;-67
2022/01/13 05:06:19;;;;;;;101.18;26.20;;;1.90;99.90;;;;;;5100308;28;20150;-67
2022/01/13 05:08:47;;;;;;;96.18;27.15;;;1.90;99.90;;;;;;5100280;28;20024;-67
2022/01/13 05:11:16;;;;;;;91.18;25.50;;;1.90;99.90;;;;;;5099854;28;20058;-67
2022/01/13 05:13:44;;;;;;;116.72;26.45;;;1.90;99.90;;;;;;5081887;28;20107;-67
2022/01/13 05:16:47;;;;;;;105.30;28.42;;;1.90;99.90;;;;;;5099978;28;20055;-67
2022/01/13 05:22:15;;;;;;;113.57;29.20;;;1.90;99.90;;;;;;5100662;28;20039;-67
2022/01/13 05:24:33;;;;;;;107.82;30.08;;;1.90;99.90;;;;;;5100377;28;20024;-67
2022/01/13 05:27:00;;;;;;;104.57;28.52;;;2.00;99.90;;;;;;5082779;28;20095;-67
2022/01/13 05:29:27;;;;;;;106.72;29.52;;;2.00;99.90;;;;;;5100647;28;20435;-67
2022/01/13 05:31:54;;;;;;;102.63;27.75;;;2.00;99.90;;;;;;5100765;28;20028;-67
2022/01/13 05:34:22;;;;;;;97.13;29.70;;;2.00;99.90;;;;;;5101068;28;20061;-67
2022/01/13 05:36:49;;;;;;;111.15;27.90;;;2.00;99.90;;;;;;5099837;28;20016;-67
2022/01/13 05:39:16;;;;;;;123.20;28.00;;;1.90;99.90;;;;;;5099347;28;20029;-67
2022/01/13 05:41:44;;;;;;;93.70;25.98;;;2.00;99.90;;;;;;5081455;28;20021;-67
2022/01/13 05:44:12;;;;;;;107.18;30.33;;;1.90;99.90;;;;;;5081593;28;20095;-67
2022/01/13 05:46:39;;;;;;;104.13;26.75;;;1.90;99.90;;;;;;5099171;28;20031;-67
2022/01/13 05:49:07;;;;;;;102.63;25.88;;;1.90;99.90;;;;;;5098600;28;20028;-67
2022/01/13 05:51:35;;;;;;;85.10;24.48;;;1.90;99.90;;;;;;5099133;28;20024;-67
2022/01/13 05:54:02;;;;;;;121.32;27.75;;;1.90;99.90;;;;;;5099157;28;20032;-67
2022/01/13 05:56:29;;;;;;;104.18;28.17;;;1.90;99.90;;;;;;5099238;28;20416;-67
2022/01/13 05:58:57;;;;;;;106.32;29.63;;;1.90;99.90;;;;;;5099636;28;20408;-67
2022/01/13 06:01:24;;;;;;;102.75;28.08;;;1.90;99.90;;;;;;5082060;28;20023;-67
2022/01/13 06:03:52;;;;;;;113.75;27.15;;;1.90;99.90;;;;;;5081984;28;20016;-67
2022/01/13 06:06:19;;;;;;;105.70;26.20;;;1.90;99.90;;;;;;5100266;28;20024;-67
2022/01/13 06:08:46;;;;;;;90.47;24.75;;;1.90;99.90;;;;;;5099779;28;20399;-67
2022/01/13 06:11:14;;;;;;;90.38;24.98;;;1.90;99.90;;;;;;5099747;28;20439;-67
2022/01/13 06:13:41;;;;;;;95.63;27.38;;;1.90;99.90;;;;;;5099862;28;20328;-67
2022/01/13 06:16:09;;;;;;;84.53;24.10;;;1.90;99.90;;;;;;5099521;28;20050;-67
2022/01/13 06:18:36;;;;;;;98.20;25.38;;;1.90;99.90;;;;;;5098985;28;20040;-67
2022/01/13 06:21:03;;;;;;;91.82;24.98;;;1.90;99.90;;;;;;5080645;28;20024;-67
2022/01/13 06:23:31;;;;;;;97.55;27.08;;;1.90;99.90;;;;;;5098562;28;20016;-67
2022/01/13 06:25:59;;;;;;;112.20;28.75;;;1.90;99.90;;;;;;5080511;28;20107;-68
2022/01/13 06:28:26;;;;;;;105.20;27.92;;;1.90;99.90;;;;;;5099038;28;20020;-67
2022/01/13 06:30:54;;;;;;;80.07;24.92;;;1.90;99.90;;;;;;5098445;28;20016;-67
2022/01/13 06:33:21;;;;;;;94.07;25.42;;;1.90;99.90;;;;;;5098387;28;20020;-67
2022/01/13 06:35:49;;;;;;;90.72;23.35;;;1.90;99.90;;;;;;5080392;28;20025;-67
2022/01/13 06:38:17;;;;;;;92.18;24.27;;;1.90;99.90;;;;;;5098215;28;20100;-67
2022/01/13 06:40:44;;;;;;;88.30;25.05;;;1.90;99.90;;;;;;5098403;28;20099;-67
2022/01/13 06:43:12;;;;;;;99.35;23.70;;;1.80;99.90;;;;;;5081115;28;20027;-67
2022/01/13 06:45:39;;;;;;;91.57;24.52;;;1.90;99.90;;;;;;5099008;28;20150;-67
2022/01/13 06:48:07;;;;;;;86.35;24.38;;;1.90;99.90;;;;;;5081073;28;20031;-67
2022/01/13 06:50:35;;;;;;;94.43;24.15;;;1.90;99.90;;;;;;5099197;28;20016;-67
2022/01/13 06:53:03;;;;;;;100.22;25.05;;;1.90;99.90;;;;;;5099117;28;20337;-67
2022/01/13 06:55:31;;;;;;;95.93;23.40;;;1.90;99.90;;;;;;5081364;28;20028;-67
2022/01/13 06:57:59;;;;;;;70.22;18.75;;;1.90;99.90;;;;;;5098857;28;20419;-67
2022/01/13 07:00:26;;;;;;;80.53;22.58;;;1.90;99.90;;;;;;5098726;28;20050;-67
2022/01/13 07:02:56;;;;;;;91.85;22.25;;;1.90;99.90;;;;;;5097524;28;20035;-67
2022/01/13 07:05:23;;;;;;;78.65;20.77;;;2.00;99.90;;;;;;5098249;28;20024;-67
2022/01/13 07:07:51;;;;;;;91.97;25.48;;;2.00;99.90;;;;;;5079610;28;20042;-67
2022/01/13 07:10:18;;;;;;;71.53;21.13;;;2.00;99.90;;;;;;5098424;28;20032;-67
2022/01/13 07:12:46;;;;;;;81.57;22.08;;;2.00;99.90;;;;;;5098182;28;20031;-67
2022/01/13 07:15:14;;;;;;;97.82;23.27;;;2.00;99.90;;;;;;5079532;28;20020;-67
2022/01/13 07:17:41;;;;;;;78.18;19.33;;;2.00;99.90;;;;;;5075966;28;20098;-67
2022/01/13 07:20:09;;;;;;;77.60;19.52;;;2.00;99.90;;;;;;5076342;28;20020;-67
2022/01/13 07:22:41;;;;;;;82.15;23.27;;;2.00;99.90;;;;;;5076051;28;20298;-67
2022/01/13 07:25:09;;;;;;;78.75;21.40;;;2.00;99.90;;;;;;5077900;28;20066;-67
2022/01/13 07:27:36;;;;;;;78.97;21.15;;;2.00;99.90;;;;;;5078038;28;20070;-67
2022/01/13 07:30:04;;;;;;;76.50;21.40;;;2.00;99.90;;;;;;5078449;28;20016;-67
2022/01/13 07:32:32;;;;;;;66.95;18.95;;;2.00;99.90;;;;;;5076867;28;20043;-67
2022/01/13 07:34:59;;;;;;;79.43;20.90;;;2.10;99.90;;;;;;5077862;28;20032;-67
2022/01/13 07:37:27;;;;;;;87.50;22.35;;;2.00;99.90;;;;;;5077755;28;20025;-67
2022/01/13 07:39:54;;;;;;;71.38;18.33;;;2.10;99.90;;;;;;5078030;28;20048;-67
2022/01/13 07:42:24;;;;;;;89.68;21.08;;;2.10;99.90;;;;;;5077837;28;20012;-67
2022/01/13 07:44:52;;;;;;;84.68;22.52;;;2.10;99.90;;;;;;5077647;28;20066;-67
2022/01/13 07:47:20;;;;;;;67.78;20.15;;;2.10;99.90;;;;;;5076731;28;20028;-67
2022/01/13 07:49:47;;;;;;;79.85;19.85;;;2.10;99.90;;;;;;5077534;28;20059;-70
2022/01/13 07:52:15;;;;;;;79.43;21.55;;;2.10;99.90;;;;;;5076684;28;20024;-70
2022/01/13 07:54:42;;;;;;;62.75;19.75;;;2.20;99.90;;;;;;5076651;28;20020;-69
2022/01/13 07:57:10;;;;;;;68.60;20.55;;;2.20;99.90;;;;;;5076979;28;20020;-71
2022/01/13 07:59:38;;;;;;;73.07;19.10;;;2.20;99.90;;;;;;5075738;28;20378;-71
2022/01/13 08:02:05;;;;;;;62.67;18.50;;;2.20;99.90;;;;;;5077148;28;20098;-69
2022/01/13 08:04:32;;;;;;;43.70;17.27;;;2.20;99.90;;;;;;5076653;28;20029;-69
2022/01/13 08:07:00;;;;;;;56.72;16.08;;;2.20;99.90;;;;;;5077385;28;20420;-70
2022/01/13 08:09:29;;;;;;;71.72;20.63;;;2.20;99.90;;;;;;5076574;28;20055;-70
2022/01/13 08:11:57;;;;;;;65.10;18.95;;;2.20;99.90;;;;;;5076205;28;20055;-69
2022/01/13 08:14:24;;;;;;;60.53;17.75;;;2.20;99.90;;;;;;5077379;28;20094;-71
2022/01/13 08:16:57;;;;;;;67.68;18.52;;;2.20;99.90;;;;;;5082287;28;20089;-70
2022/01/13 08:22:10;;;;;;;57.67;17.67;;;2.30;99.90;;;;;;5082605;28;20050;-69
2022/01/13 08:24:37;;;;;;;61.58;17.92;;;2.30;99.90;;;;;;5097339;28;20095;-69
2022/01/13 08:27:05;;;;;;;57.05;16.80;;;2.30;99.90;;;;;;5078985;28;20343;-69
2022/01/13 08:29:33;;;;;;;57.25;17.40;;;2.30;99.90;;;;;;5096559;28;20028;-69
2022/01/13 08:32:01;;;;;;;57.80;17.13;;;2.30;99.90;;;;;;5096381;28;20107;-70
2022/01/13 08:34:29;;;;;;;52.90;18.33;;;2.30;99.90;;;;;;5078470;28;20024;-70
2022/01/13 08:36:57;;;;;;;63.10;18.60;;;2.30;99.90;;;;;;5096997;28;20054;-71
2022/01/13 08:39:25;;;;;;;50.47;17.52;;;2.30;99.90;;;;;;5096544;28;20149;-72
2022/01/13 08:41:52;;;;;;;52.20;16.63;;;2.40;99.90;;;;;;5096387;28;20077;-69
2022/01/13 08:44:19;;;;;;;55.55;17.77;;;2.40;99.90;;;;;;5096369;28;20046;-69
2022/01/13 08:46:47;;;;;;;54.70;16.45;;;2.40;99.90;;;;;;5078523;28;20089;-69
2022/01/13 08:49:15;;;;;;;42.22;13.73;;;2.40;99.90;;;;;;5096758;28;20031;-69
2022/01/13 08:51:42;;;;;;;47.35;14.90;;;2.40;99.90;;;;;;5097752;28;20020;-69
2022/01/13 08:54:09;;;;;;;51.80;14.73;;;2.30;99.90;;;;;;5097768;28;20016;-69
2022/01/13 08:56:37;;;;;;;49.58;15.27;;;2.40;99.90;;;;;;5097157;28;20101;-69
2022/01/13 08:59:05;;;;;;;50.38;15.38;;;2.40;99.90;;;;;;5098050;28;20039;-68
2022/01/13 09:01:32;;;;;;;45.75;15.15;;;2.40;99.90;;;;;;5097716;28;20017;-69
2022/01/13 09:04:00;;;;;;;45.55;14.30;;;2.40;99.90;;;;;;5080037;28;20024;-69
2022/01/13 09:06:28;;;;;;;48.90;16.02;;;2.40;99.90;;;;;;5098086;28;20020;-69
2022/01/13 09:08:55;;;;;;;45.08;15.50;;;2.40;99.90;;;;;;5079206;28;20040;-69
2022/01/13 09:11:22;;;;;;;50.28;18.38;;;2.50;99.90;;;;;;5095113;28;20024;-69
2022/01/13 09:13:56;;;;;;;55.90;16.23;;;2.50;99.90;;;;;;5078361;28;20034;-69
2022/01/13 09:16:27;;;;;;;43.25;13.85;;;2.50;99.90;;;;;;5096082;28;20111;-69
2022/01/13 09:21:23;;;;;;;49.85;15.30;;;2.60;99.90;;;;;;5096378;28;20466;-69
2022/01/13 09:23:50;;;;;;;58.90;14.70;;;2.60;99.90;;;;;;5077962;28;20404;-69
2022/01/13 09:26:18;;;;;;;51.05;14.45;;;2.60;99.90;;;;;;5081619;28;20024;-69
2022/01/13 09:28:47;;;;;;;55.70;15.50;;;2.60;99.90;;;;;;5100254;28;20074;-69
2022/01/13 09:31:14;;;;;;;52.38;15.50;;;2.70;99.90;;;;;;5099779;28;20106;-69
2022/01/13 09:33:41;;;;;;;54.25;15.32;;;2.70;99.90;;;;;;5100582;28;20027;-69
2022/01/13 09:36:08;;;;;;;51.67;16.20;;;2.70;99.90;;;;;;5100598;28;20076;-69
2022/01/13 09:38:37;;;;;;;63.40;18.30;;;2.70;99.90;;;;;;5100851;28;20016;-69
2022/01/13 09:41:05;;;;;;;57.15;16.48;;;2.70;99.90;;;;;;5082836;28;20017;-69
2022/01/13 09:43:32;;;;;;;52.78;16.50;;;2.70;99.90;;;;;;5100526;28;20020;-69
2022/01/13 09:46:00;;;;;;;59.78;17.48;;;2.70;99.90;;;;;;5100204;28;20043;-69
2022/01/13 09:48:28;;;;;;;52.42;15.30;;;2.80;99.90;;;;;;5082203;28;20328;-69
2022/01/13 09:50:56;;;;;;;53.25;14.52;;;2.70;99.90;;;;;;5099899;28;20038;-69
2022/01/13 09:53:25;;;;;;;54.20;16.83;;;2.80;99.90;;;;;;5081357;28;20032;-69
2022/01/13 09:55:53;;;;;;;45.50;14.40;;;2.80;99.90;;;;;;5098892;28;20020;-68
2022/01/13 09:58:20;;;;;;;62.67;17.58;;;2.80;99.90;;;;;;5099089;28;20320;-68
2022/01/13 10:00:48;;;;;;;52.22;17.17;;;2.90;99.90;;;;;;5099215;28;20028;-68
2022/01/13 10:03:18;;;;;;;62.13;17.88;;;2.90;99.90;;;;;;5099027;28;20366;-68
2022/01/13 10:06:00;;;;;;;52.03;19.20;;;2.90;99.90;;;;;;5098810;28;20027;-68
2022/01/13 10:08:48;;;;;;;77.93;27.65;;;3.00;99.90;;;;;;5098770;28;20035;-68
2022/01/13 10:11:40;;;;;;;48.92;14.63;;;2.90;99.90;;;;;;5098823;28;20043;-68
2022/01/13 10:17:16;;;;;;;57.25;18.10;;;2.90;99.90;;;;;;5070559;28;20047;-68
2022/01/13 10:19:46;;;;;;;63.25;18.27;;;2.90;99.90;;;;;;5099568;28;20028;-68
2022/01/13 10:22:23;;;;;;;51.78;16.10;;;3.00;99.90;;;;;;5099521;28;20069;-68
2022/01/13 10:24:56;;;;;;;40.40;13.27;;;3.00;99.90;;;;;;5099608;28;20020;-68
2022/01/13 10:27:30;;;;;;;51.80;15.93;;;3.00;99.90;;;;;;5099345;28;20060;-69
2022/01/13 10:30:18;;;;;;;54.10;16.48;;;3.00;99.90;;;;;;5099488;28;20073;-70
2022/01/13 10:32:46;;;;;;;41.28;14.50;;;3.10;99.90;;;;;;5099304;28;20029;-68
2022/01/13 10:35:17;;;;;;;56.72;15.20;;;3.10;99.90;;;;;;5098444;28;20027;-70
2022/01/13 10:37:53;;;;;;;56.75;16.85;;;3.10;99.90;;;;;;5098157;28;20027;-70
2022/01/13 10:40:26;;;;;;;49.72;14.82;;;3.10;99.90;;;;;;5098547;28;20016;-72
2022/01/13 10:45:47;;;;;;;46.00;15.27;;;3.10;99.90;;;;;;5098379;28;20024;-72
2022/01/13 10:48:27;;;;;;;55.78;15.30;;;3.10;99.90;;;;;;5097821;28;20089;-70
2022/01/13 10:51:07;;;;;;;51.80;14.60;;;3.10;99.90;;;;;;5098320;28;20412;-71
2022/01/13 10:53:39;;;;;;;55.75;14.27;;;3.10;99.90;;;;;;5098262;28;20050;-70
2022/01/13 10:56:09;;;;;;;44.20;15.20;;;3.20;99.90;;;;;;5080134;28;20024;-69
2022/01/13 10:58:50;;;;;;;49.85;17.52;;;3.20;99.90;;;;;;5099094;28;20043;-69
2022/01/13 11:01:17;;;;;;;59.75;17.27;;;3.20;99.90;;;;;;5080759;28;20366;-69
2022/01/13 11:03:47;;;;;;;45.53;15.00;;;3.30;99.90;;;;;;5097730;28;20062;-68
2022/01/13 11:06:16;;;;;;;48.15;14.60;;;3.30;99.90;;;;;;5098539;28;20107;-68
2022/01/13 11:08:45;;;;;;;72.20;23.55;;;3.30;99.90;;;;;;5098631;28;20048;-71
2022/01/13 11:11:33;;;;;;;38.90;14.63;;;3.30;99.90;;;;;;5080523;28;20027;-69
2022/01/13 11:14:09;;;;;;;38.67;11.65;;;3.40;99.90;;;;;;5098821;28;20054;-68
2022/01/13 11:16:38;;;;;;;44.25;14.75;;;3.40;99.90;;;;;;5097995;28;20059;-69
2022/01/13 11:19:06;;;;;;;40.97;12.77;;;3.40;99.90;;;;;;5097599;28;20024;-71
2022/01/13 11:21:33;;;;;;;43.17;14.15;;;3.40;99.90;;;;;;5098222;28;20021;-70
2022/01/13 11:24:01;;;;;;;41.42;13.90;;;3.40;99.90;;;;;;5079546;28;20020;-70
2022/01/13 11:26:30;;;;;;;43.08;13.88;;;3.40;99.90;;;;;;5097670;28;20052;-69
2022/01/13 11:29:04;;;;;;;50.50;16.73;;;3.40;99.90;;;;;;5097283;28;20112;-69
2022/01/13 11:31:31;;;;;;;43.72;13.23;;;3.50;99.90;;;;;;5097349;28;20104;-69
2022/01/13 11:34:00;;;;;;;35.17;13.05;;;3.50;99.90;;;;;;5097278;28;20028;-71
2022/01/13 11:36:28;;;;;;;46.17;13.82;;;3.50;99.90;;;;;;5097120;28;20085;-72
2022/01/13 11:39:07;;;;;;;40.60;14.10;;;3.40;99.90;;;;;;5097414;28;20049;-71
2022/01/13 11:41:55;;;;;;;38.17;13.52;;;3.50;99.90;;;;;;5097998;28;20031;-71
2022/01/13 11:44:23;;;;;;;48.25;16.05;;;3.50;99.90;;;;;;5097937;28;20042;-69
2022/01/13 11:46:50;;;;;;;40.95;14.50;;;3.60;99.90;;;;;;5098154;28;20103;-70
2022/01/13 11:49:19;;;;;;;41.60;14.68;;;3.60;99.90;;;;;;5097717;28;20020;-68
2022/01/13 11:51:59;;;;;;;38.50;12.70;;;3.70;99.90;;;;;;5097749;28;20324;-70
2022/01/13 11:54:31;;;;;;;38.35;12.88;;;3.80;99.90;;;;;;5097994;28;20479;-71
2022/01/13 11:57:29;;;;;;;40.58;12.60;;;3.80;99.90;;;;;;5079687;28;20114;-72
2022/01/13 11:59:56;;;;;;;40.53;14.05;;;4.00;99.90;;;;;;5078572;28;20024;-69
2022/01/13 12:02:24;;;;;;;35.15;13.93;;;4.10;99.90;;;;;;5096671;28;20020;-70
2022/01/13 12:05:06;;;;;;;39.97;15.32;;;4.20;99.90;;;;;;5097508;28;20020;-70
2022/01/13 12:07:49;;;;;;;32.50;12.18;;;4.20;99.90;;;;;;5096973;28;20103;-69
2022/01/13 12:10:26;;;;;;;49.28;14.63;;;4.30;99.90;;;;;;5078754;28;20424;-70
2022/01/13 12:12:54;;;;;;;38.30;13.45;;;4.30;99.90;;;;;;5097418;28;20028;-70
2022/01/13 12:15:23;;;;;;;34.63;12.95;;;4.40;99.90;;;;;;5096530;28;20034;-69
2022/01/13 12:17:57;;;;;;;33.20;12.90;;;4.40;99.90;;;;;;5096553;28;20089;-70
2022/01/13 12:20:30;;;;;;;32.67;13.15;;;4.50;99.90;;;;;;5096573;28;20035;-70
2022/01/13 12:23:04;;;;;;;29.20;11.30;;;4.50;99.90;;;;;;5098157;28;20024;-70
2022/01/13 12:25:33;;;;;;;34.45;11.93;;;4.50;99.90;;;;;;5097381;28;20028;-70
2022/01/13 12:28:17;;;;;;;27.95;11.32;;;4.50;99.90;;;;;;5097616;28;20027;-69
2022/01/13 12:30:46;;;;;;;29.42;11.57;;;4.50;99.90;;;;;;5097523;28;20323;-70
2022/01/13 12:33:30;;;;;;;31.10;10.57;;;4.50;99.90;;;;;;5097555;28;20081;-70
2022/01/13 12:35:58;;;;;;;27.30;11.27;;;4.50;99.90;;;;;;5097309;28;20040;-70
2022/01/13 12:38:27;;;;;;;31.83;11.40;;;4.50;99.90;;;;;;5097282;28;20028;-70
2022/01/13 12:41:15;;;;;;;29.08;12.05;;;4.60;99.90;;;;;;5079439;28;20319;-68
2022/01/13 12:46:28;;;;;;;29.52;12.25;;;4.60;99.90;;;;;;5096446;28;20028;-69
2022/01/13 12:48:56;;;;;;;33.28;11.90;;;4.60;99.90;;;;;;5096407;28;20032;-69
2022/01/13 12:51:27;;;;;;;32.38;11.57;;;4.70;99.90;;;;;;5096320;28;20028;-68
2022/01/13 12:53:55;;;;;;;30.30;12.13;;;4.80;99.90;;;;;;5096132;28;20035;-68
2022/01/13 12:56:28;;;;;;;29.25;12.35;;;4.90;99.90;;;;;;5096086;28;20370;-68
2022/01/13 12:59:01;;;;;;;30.67;12.75;;;5.00;99.90;;;;;;5078132;28;20017;-67
2022/01/13 13:01:31;;;;;;;35.42;11.63;;;5.20;99.90;;;;;;5082033;28;20020;-68
2022/01/13 13:04:10;;;;;;;26.75;12.40;;;5.30;99.90;;;;;;5100369;28;20085;-68
2022/01/13 13:06:45;;;;;;;33.17;13.55;;;5.40;99.90;;;;;;5083018;28;20055;-68
2022/01/13 13:09:19;;;;;;;29.03;11.83;;;5.50;99.90;;;;;;5100803;28;20028;-68
2022/01/13 13:11:52;;;;;;;36.33;14.30;;;5.60;99.90;;;;;;5101173;28;20028;-68
2022/01/13 13:17:40;;;;;;;32.20;11.88;;;5.50;99.90;;;;;;5100722;28;20067;-67
2022/01/13 13:20:24;;;;;;;34.22;13.77;;;5.50;99.90;;;;;;5101063;28;20027;-68
2022/01/13 13:22:55;;;;;;;38.70;15.65;;;5.40;99.90;;;;;;5100467;28;20027;-68
2022/01/13 13:25:42;;;;;;;31.92;12.95;;;5.40;99.90;;;;;;5099555;28;20114;-68